sensor_id;sensor_type;location;lat;lon;timestamp;temperature;humidity
86734;SHT30;77492;48.396;-4.472;2024-03-29T00:01:44;8.74;84.43
86734;SHT30;77492;48.396;-4.472;2024-03-29T00:04:09;8.62;84.73
86734;SHT30;77492;48.396;-4.472;2024-03-29T00:06:34;8.50;83.49
86734;SHT30;77492;48.396;-4.472;2024-03-29T00:09:00;8.42;82.74
86734;SHT30;77492;48.396;-4.472;2024-03-29T00:11:27;8.49;81.25
86734;SHT30;77492;48.396;-4.472;2024-03-29T00:13:52;8.56;80.42
86734;SHT30;77492;48.396;-4.472;2024-03-29T00:16:18;8.60;81.32
86734;SHT30;77492;48.396;-4.472;2024-03-29T00:18:44;8.55;81.15
86734;SHT30;77492;48.396;-4.472;2024-03-29T00:21:09;8.55;81.16
86734;SHT30;77492;48.396;-4.472;2024-03-29T00:23:35;8.48;80.76
86734;SHT30;77492;48.396;-4.472;2024-03-29T00:26:00;8.38;79.30
86734;SHT30;77492;48.396;-4.472;2024-03-29T00:28:26;8.29;79.53
86734;SHT30;77492;48.396;-4.472;2024-03-29T00:30:51;8.25;79.32
86734;SHT30;77492;48.396;-4.472;2024-03-29T00:33:16;8.27;78.83
86734;SHT30;77492;48.396;-4.472;2024-03-29T00:35:42;8.14;80.41
86734;SHT30;77492;48.396;-4.472;2024-03-29T00:38:07;8.27;80.03
86734;SHT30;77492;48.396;-4.472;2024-03-29T00:40:33;8.31;80.74
86734;SHT30;77492;48.396;-4.472;2024-03-29T00:43:00;8.34;81.49
86734;SHT30;77492;48.396;-4.472;2024-03-29T00:45:26;8.36;82.26
86734;SHT30;77492;48.396;-4.472;2024-03-29T00:47:53;8.35;82.73
86734;SHT30;77492;48.396;-4.472;2024-03-29T00:50:19;8.46;82.82
86734;SHT30;77492;48.396;-4.472;2024-03-29T00:52:45;8.45;82.17
86734;SHT30;77492;48.396;-4.472;2024-03-29T00:55:13;8.44;82.40
86734;SHT30;77492;48.396;-4.472;2024-03-29T00:57:39;8.49;81.83
86734;SHT30;77492;48.396;-4.472;2024-03-29T01:00:05;8.55;81.51
86734;SHT30;77492;48.396;-4.472;2024-03-29T01:02:31;8.59;81.52
86734;SHT30;77492;48.396;-4.472;2024-03-29T01:04:56;8.62;82.09
86734;SHT30;77492;48.396;-4.472;2024-03-29T01:07:23;8.57;82.10
86734;SHT30;77492;48.396;-4.472;2024-03-29T01:09:48;8.66;81.96
86734;SHT30;77492;48.396;-4.472;2024-03-29T01:12:14;8.77;81.58
86734;SHT30;77492;48.396;-4.472;2024-03-29T01:14:39;8.77;81.86
86734;SHT30;77492;48.396;-4.472;2024-03-29T01:17:05;8.76;82.14
86734;SHT30;77492;48.396;-4.472;2024-03-29T01:19:32;8.77;81.96
86734;SHT30;77492;48.396;-4.472;2024-03-29T01:21:57;8.74;82.66
86734;SHT30;77492;48.396;-4.472;2024-03-29T01:24:23;8.84;82.53
86734;SHT30;77492;48.396;-4.472;2024-03-29T01:26:48;8.85;82.74
86734;SHT30;77492;48.396;-4.472;2024-03-29T01:29:14;8.80;83.62
86734;SHT30;77492;48.396;-4.472;2024-03-29T01:31:39;8.74;83.15
86734;SHT30;77492;48.396;-4.472;2024-03-29T01:34:04;8.73;82.15
86734;SHT30;77492;48.396;-4.472;2024-03-29T01:36:30;8.64;81.97
86734;SHT30;77492;48.396;-4.472;2024-03-29T01:38:56;8.59;81.14
86734;SHT30;77492;48.396;-4.472;2024-03-29T01:41:24;8.49;81.53
86734;SHT30;77492;48.396;-4.472;2024-03-29T01:43:50;8.57;81.32
86734;SHT30;77492;48.396;-4.472;2024-03-29T01:46:18;8.60;81.56
86734;SHT30;77492;48.396;-4.472;2024-03-29T01:48:44;8.69;81.87
86734;SHT30;77492;48.396;-4.472;2024-03-29T01:51:11;8.69;82.50
86734;SHT30;77492;48.396;-4.472;2024-03-29T01:53:39;8.70;82.85
86734;SHT30;77492;48.396;-4.472;2024-03-29T01:56:05;8.73;83.22
86734;SHT30;77492;48.396;-4.472;2024-03-29T01:58:31;8.81;83.15
86734;SHT30;77492;48.396;-4.472;2024-03-29T02:00:59;8.83;83.71
86734;SHT30;77492;48.396;-4.472;2024-03-29T02:03:25;8.83;84.16
86734;SHT30;77492;48.396;-4.472;2024-03-29T02:05:52;8.91;84.51
86734;SHT30;77492;48.396;-4.472;2024-03-29T02:08:18;8.90;84.84
86734;SHT30;77492;48.396;-4.472;2024-03-29T02:10:47;8.98;84.81
86734;SHT30;77492;48.396;-4.472;2024-03-29T02:13:13;9.16;84.57
86734;SHT30;77492;48.396;-4.472;2024-03-29T02:15:39;9.15;83.96
86734;SHT30;77492;48.396;-4.472;2024-03-29T02:18:06;8.92;83.95
86734;SHT30;77492;48.396;-4.472;2024-03-29T02:20:32;8.87;83.23
86734;SHT30;77492;48.396;-4.472;2024-03-29T02:23:04;8.80;82.82
86734;SHT30;77492;48.396;-4.472;2024-03-29T02:25:31;8.85;82.64
86734;SHT30;77492;48.396;-4.472;2024-03-29T02:27:57;8.96;82.52
86734;SHT30;77492;48.396;-4.472;2024-03-29T02:30:23;8.98;82.98
86734;SHT30;77492;48.396;-4.472;2024-03-29T02:32:49;9.08;83.20
86734;SHT30;77492;48.396;-4.472;2024-03-29T02:35:15;9.12;83.61
86734;SHT30;77492;48.396;-4.472;2024-03-29T02:37:40;9.11;82.68
86734;SHT30;77492;48.396;-4.472;2024-03-29T02:40:06;9.18;82.59
86734;SHT30;77492;48.396;-4.472;2024-03-29T02:42:34;9.22;82.38
86734;SHT30;77492;48.396;-4.472;2024-03-29T02:45:01;9.18;82.57
86734;SHT30;77492;48.396;-4.472;2024-03-29T02:47:27;9.14;84.05
86734;SHT30;77492;48.396;-4.472;2024-03-29T02:49:52;9.10;84.02
86734;SHT30;77492;48.396;-4.472;2024-03-29T02:52:18;9.08;83.00
86734;SHT30;77492;48.396;-4.472;2024-03-29T02:54:44;9.18;83.37
86734;SHT30;77492;48.396;-4.472;2024-03-29T02:57:09;9.19;83.81
86734;SHT30;77492;48.396;-4.472;2024-03-29T02:59:34;9.19;82.97
86734;SHT30;77492;48.396;-4.472;2024-03-29T03:02:00;9.18;82.76
86734;SHT30;77492;48.396;-4.472;2024-03-29T03:04:26;9.22;82.62
86734;SHT30;77492;48.396;-4.472;2024-03-29T03:06:51;9.29;82.50
86734;SHT30;77492;48.396;-4.472;2024-03-29T03:09:17;9.33;82.24
86734;SHT30;77492;48.396;-4.472;2024-03-29T03:12:00;9.32;82.28
86734;SHT30;77492;48.396;-4.472;2024-03-29T03:14:26;9.18;83.75
86734;SHT30;77492;48.396;-4.472;2024-03-29T03:16:52;9.04;85.06
86734;SHT30;77492;48.396;-4.472;2024-03-29T03:19:17;9.05;85.10
86734;SHT30;77492;48.396;-4.472;2024-03-29T03:21:43;9.04;85.21
86734;SHT30;77492;48.396;-4.472;2024-03-29T03:24:08;9.05;84.66
86734;SHT30;77492;48.396;-4.472;2024-03-29T03:26:34;9.04;83.78
86734;SHT30;77492;48.396;-4.472;2024-03-29T03:29:00;9.01;82.74
86734;SHT30;77492;48.396;-4.472;2024-03-29T03:31:25;8.97;82.34
86734;SHT30;77492;48.396;-4.472;2024-03-29T03:33:50;8.92;81.69
86734;SHT30;77492;48.396;-4.472;2024-03-29T03:36:16;8.92;81.33
86734;SHT30;77492;48.396;-4.472;2024-03-29T03:38:41;8.83;81.75
86734;SHT30;77492;48.396;-4.472;2024-03-29T03:41:07;8.91;81.75
86734;SHT30;77492;48.396;-4.472;2024-03-29T03:43:32;8.91;82.17
86734;SHT30;77492;48.396;-4.472;2024-03-29T03:46:02;8.94;82.58
86734;SHT30;77492;48.396;-4.472;2024-03-29T03:48:27;8.94;83.18
86734;SHT30;77492;48.396;-4.472;2024-03-29T03:50:55;9.04;83.21
86734;SHT30;77492;48.396;-4.472;2024-03-29T03:53:22;9.08;83.16
86734;SHT30;77492;48.396;-4.472;2024-03-29T03:55:48;9.21;83.10
86734;SHT30;77492;48.396;-4.472;2024-03-29T03:58:13;9.22;83.15
86734;SHT30;77492;48.396;-4.472;2024-03-29T04:00:39;9.19;83.31
86734;SHT30;77492;48.396;-4.472;2024-03-29T04:03:04;9.22;83.61
86734;SHT30;77492;48.396;-4.472;2024-03-29T04:05:30;9.23;83.11
86734;SHT30;77492;48.396;-4.472;2024-03-29T04:07:57;9.21;82.76
86734;SHT30;77492;48.396;-4.472;2024-03-29T04:10:23;9.10;82.91
86734;SHT30;77492;48.396;-4.472;2024-03-29T04:12:50;9.11;83.21
86734;SHT30;77492;48.396;-4.472;2024-03-29T04:15:16;9.15;82.98
86734;SHT30;77492;48.396;-4.472;2024-03-29T04:17:41;9.19;82.74
86734;SHT30;77492;48.396;-4.472;2024-03-29T04:20:07;9.22;82.56
86734;SHT30;77492;48.396;-4.472;2024-03-29T04:22:33;9.21;81.68
86734;SHT30;77492;48.396;-4.472;2024-03-29T04:24:58;9.28;80.65
86734;SHT30;77492;48.396;-4.472;2024-03-29T04:27:25;9.25;80.54
86734;SHT30;77492;48.396;-4.472;2024-03-29T04:29:52;9.25;79.95
86734;SHT30;77492;48.396;-4.472;2024-03-29T04:32:17;9.25;79.55
86734;SHT30;77492;48.396;-4.472;2024-03-29T04:34:46;9.19;80.13
86734;SHT30;77492;48.396;-4.472;2024-03-29T04:37:12;9.21;80.09
86734;SHT30;77492;48.396;-4.472;2024-03-29T04:39:37;9.23;79.76
86734;SHT30;77492;48.396;-4.472;2024-03-29T04:42:03;9.19;79.98
86734;SHT30;77492;48.396;-4.472;2024-03-29T04:44:28;9.32;79.59
86734;SHT30;77492;48.396;-4.472;2024-03-29T04:46:54;9.30;79.75
86734;SHT30;77492;48.396;-4.472;2024-03-29T04:49:23;9.28;80.14
86734;SHT30;77492;48.396;-4.472;2024-03-29T04:51:56;9.25;80.36
86734;SHT30;77492;48.396;-4.472;2024-03-29T04:54:22;9.25;80.53
86734;SHT30;77492;48.396;-4.472;2024-03-29T04:56:47;9.33;80.65
86734;SHT30;77492;48.396;-4.472;2024-03-29T04:59:12;9.35;81.06
86734;SHT30;77492;48.396;-4.472;2024-03-29T05:01:42;9.39;81.05
86734;SHT30;77492;48.396;-4.472;2024-03-29T05:04:09;9.35;81.70
86734;SHT30;77492;48.396;-4.472;2024-03-29T05:06:35;9.35;81.53
86734;SHT30;77492;48.396;-4.472;2024-03-29T05:09:00;9.42;81.28
86734;SHT30;77492;48.396;-4.472;2024-03-29T05:11:25;9.40;81.60
86734;SHT30;77492;48.396;-4.472;2024-03-29T05:13:51;9.51;80.92
86734;SHT30;77492;48.396;-4.472;2024-03-29T05:16:16;9.51;80.96
86734;SHT30;77492;48.396;-4.472;2024-03-29T05:18:42;9.53;81.15
86734;SHT30;77492;48.396;-4.472;2024-03-29T05:21:07;9.49;81.30
86734;SHT30;77492;48.396;-4.472;2024-03-29T05:23:34;9.54;81.12
86734;SHT30;77492;48.396;-4.472;2024-03-29T05:26:00;9.54;80.95
86734;SHT30;77492;48.396;-4.472;2024-03-29T05:28:25;9.50;80.79
86734;SHT30;77492;48.396;-4.472;2024-03-29T05:30:52;9.49;80.59
86734;SHT30;77492;48.396;-4.472;2024-03-29T05:33:17;9.43;81.01
86734;SHT30;77492;48.396;-4.472;2024-03-29T05:35:43;9.29;81.58
86734;SHT30;77492;48.396;-4.472;2024-03-29T05:38:08;9.38;81.25
86734;SHT30;77492;48.396;-4.472;2024-03-29T05:40:34;9.38;81.57
86734;SHT30;77492;48.396;-4.472;2024-03-29T05:42:59;9.42;81.60
86734;SHT30;77492;48.396;-4.472;2024-03-29T05:45:29;9.43;81.59
86734;SHT30;77492;48.396;-4.472;2024-03-29T05:47:57;9.46;81.69
86734;SHT30;77492;48.396;-4.472;2024-03-29T05:50:23;9.51;81.75
86734;SHT30;77492;48.396;-4.472;2024-03-29T05:52:50;9.53;81.31
86734;SHT30;77492;48.396;-4.472;2024-03-29T05:55:16;9.56;81.09
86734;SHT30;77492;48.396;-4.472;2024-03-29T05:57:41;9.54;81.26
86734;SHT30;77492;48.396;-4.472;2024-03-29T06:00:11;9.49;81.34
86734;SHT30;77492;48.396;-4.472;2024-03-29T06:02:37;9.53;81.70
86734;SHT30;77492;48.396;-4.472;2024-03-29T06:05:03;9.61;81.70
86734;SHT30;77492;48.396;-4.472;2024-03-29T06:07:30;9.63;81.31
86734;SHT30;77492;48.396;-4.472;2024-03-29T06:09:58;9.63;81.37
86734;SHT30;77492;48.396;-4.472;2024-03-29T06:12:24;9.69;81.27
86734;SHT30;77492;48.396;-4.472;2024-03-29T06:14:49;9.61;80.99
86734;SHT30;77492;48.396;-4.472;2024-03-29T06:17:34;9.67;81.35
86734;SHT30;77492;48.396;-4.472;2024-03-29T06:20:01;9.71;81.04
86734;SHT30;77492;48.396;-4.472;2024-03-29T06:22:28;9.78;80.58
86734;SHT30;77492;48.396;-4.472;2024-03-29T06:24:56;9.70;81.40
86734;SHT30;77492;48.396;-4.472;2024-03-29T06:27:27;9.69;81.28
86734;SHT30;77492;48.396;-4.472;2024-03-29T06:29:52;9.65;80.88
86734;SHT30;77492;48.396;-4.472;2024-03-29T06:32:18;9.61;80.72
86734;SHT30;77492;48.396;-4.472;2024-03-29T06:34:46;9.67;79.75
86734;SHT30;77492;48.396;-4.472;2024-03-29T06:37:12;9.71;79.04
86734;SHT30;77492;48.396;-4.472;2024-03-29T06:39:37;9.67;78.35
86734;SHT30;77492;48.396;-4.472;2024-03-29T06:42:03;9.65;77.86
86734;SHT30;77492;48.396;-4.472;2024-03-29T06:44:31;9.63;77.91
86734;SHT30;77492;48.396;-4.472;2024-03-29T06:46:56;9.64;77.75
86734;SHT30;77492;48.396;-4.472;2024-03-29T06:49:22;9.63;77.70
86734;SHT30;77492;48.396;-4.472;2024-03-29T06:51:47;9.63;78.27
86734;SHT30;77492;48.396;-4.472;2024-03-29T06:54:13;9.65;77.90
86734;SHT30;77492;48.396;-4.472;2024-03-29T06:56:38;9.80;76.52
86734;SHT30;77492;48.396;-4.472;2024-03-29T06:59:04;9.81;76.26
86734;SHT30;77492;48.396;-4.472;2024-03-29T07:01:29;9.85;75.26
86734;SHT30;77492;48.396;-4.472;2024-03-29T07:03:55;9.87;75.12
86734;SHT30;77492;48.396;-4.472;2024-03-29T07:06:21;9.98;74.97
86734;SHT30;77492;48.396;-4.472;2024-03-29T07:08:46;10.15;75.48
86734;SHT30;77492;48.396;-4.472;2024-03-29T07:11:12;10.28;74.71
86734;SHT30;77492;48.396;-4.472;2024-03-29T07:13:38;10.26;73.29
86734;SHT30;77492;48.396;-4.472;2024-03-29T07:16:03;10.36;71.73
86734;SHT30;77492;48.396;-4.472;2024-03-29T07:18:29;10.47;72.10
86734;SHT30;77492;48.396;-4.472;2024-03-29T07:20:55;10.60;71.81
86734;SHT30;77492;48.396;-4.472;2024-03-29T07:23:20;10.60;72.62
86734;SHT30;77492;48.396;-4.472;2024-03-29T07:26:00;10.51;73.50
86734;SHT30;77492;48.396;-4.472;2024-03-29T07:28:27;10.60;72.75
86734;SHT30;77492;48.396;-4.472;2024-03-29T07:30:53;10.75;70.70
86734;SHT30;77492;48.396;-4.472;2024-03-29T07:33:20;10.82;69.70
86734;SHT30;77492;48.396;-4.472;2024-03-29T07:35:52;10.68;70.04
86734;SHT30;77492;48.396;-4.472;2024-03-29T07:38:18;10.69;69.92
86734;SHT30;77492;48.396;-4.472;2024-03-29T07:40:46;10.58;71.28
86734;SHT30;77492;48.396;-4.472;2024-03-29T07:43:12;10.44;71.09
86734;SHT30;77492;48.396;-4.472;2024-03-29T07:45:41;10.46;72.19
86734;SHT30;77492;48.396;-4.472;2024-03-29T07:48:12;10.58;71.52
86734;SHT30;77492;48.396;-4.472;2024-03-29T07:50:41;10.48;72.23
86734;SHT30;77492;48.396;-4.472;2024-03-29T07:53:07;10.26;72.42
86734;SHT30;77492;48.396;-4.472;2024-03-29T07:55:35;10.17;73.20
86734;SHT30;77492;48.396;-4.472;2024-03-29T07:58:00;10.20;73.54
86734;SHT30;77492;48.396;-4.472;2024-03-29T08:00:26;10.19;74.00
86734;SHT30;77492;48.396;-4.472;2024-03-29T08:02:52;10.22;74.39
86734;SHT30;77492;48.396;-4.472;2024-03-29T08:05:20;10.50;73.50
86734;SHT30;77492;48.396;-4.472;2024-03-29T08:07:45;10.81;72.24
86734;SHT30;77492;48.396;-4.472;2024-03-29T08:10:11;10.91;71.44
86734;SHT30;77492;48.396;-4.472;2024-03-29T08:12:36;11.03;69.67
86734;SHT30;77492;48.396;-4.472;2024-03-29T08:15:03;11.22;70.01
86734;SHT30;77492;48.396;-4.472;2024-03-29T08:17:29;11.31;70.48
86734;SHT30;77492;48.396;-4.472;2024-03-29T08:19:54;11.48;70.19
86734;SHT30;77492;48.396;-4.472;2024-03-29T08:22:20;11.42;70.37
86734;SHT30;77492;48.396;-4.472;2024-03-29T08:24:46;11.57;70.32
86734;SHT30;77492;48.396;-4.472;2024-03-29T08:27:12;11.65;69.57
86734;SHT30;77492;48.396;-4.472;2024-03-29T08:29:37;11.58;67.61
86734;SHT30;77492;48.396;-4.472;2024-03-29T08:32:03;11.74;68.06
86734;SHT30;77492;48.396;-4.472;2024-03-29T08:34:29;11.74;68.70
86734;SHT30;77492;48.396;-4.472;2024-03-29T08:37:01;11.94;67.78
86734;SHT30;77492;48.396;-4.472;2024-03-29T08:39:28;11.89;68.20
86734;SHT30;77492;48.396;-4.472;2024-03-29T08:41:54;11.92;68.65
86734;SHT30;77492;48.396;-4.472;2024-03-29T08:44:19;11.94;69.25
86734;SHT30;77492;48.396;-4.472;2024-03-29T08:46:44;11.64;70.79
86734;SHT30;77492;48.396;-4.472;2024-03-29T08:49:10;11.42;70.73
86734;SHT30;77492;48.396;-4.472;2024-03-29T08:51:35;11.31;69.25
86734;SHT30;77492;48.396;-4.472;2024-03-29T08:54:01;11.31;67.67
86734;SHT30;77492;48.396;-4.472;2024-03-29T08:56:33;11.23;66.66
86734;SHT30;77492;48.396;-4.472;2024-03-29T08:59:03;11.22;65.88
86734;SHT30;77492;48.396;-4.472;2024-03-29T09:01:33;11.07;67.18
86734;SHT30;77492;48.396;-4.472;2024-03-29T09:03:59;11.05;68.53
86734;SHT30;77492;48.396;-4.472;2024-03-29T09:06:24;11.20;69.52
86734;SHT30;77492;48.396;-4.472;2024-03-29T09:08:50;11.44;70.79
86734;SHT30;77492;48.396;-4.472;2024-03-29T09:11:15;11.45;74.98
86734;SHT30;77492;48.396;-4.472;2024-03-29T09:13:41;11.65;75.62
86734;SHT30;77492;48.396;-4.472;2024-03-29T09:16:06;11.79;75.18
86734;SHT30;77492;48.396;-4.472;2024-03-29T09:18:32;11.82;74.38
86734;SHT30;77492;48.396;-4.472;2024-03-29T09:21:01;11.93;73.30
86734;SHT30;77492;48.396;-4.472;2024-03-29T09:23:27;12.37;71.62
86734;SHT30;77492;48.396;-4.472;2024-03-29T09:25:58;12.10;73.15
86734;SHT30;77492;48.396;-4.472;2024-03-29T09:28:24;11.34;77.26
86734;SHT30;77492;48.396;-4.472;2024-03-29T09:30:50;10.81;78.59
86734;SHT30;77492;48.396;-4.472;2024-03-29T09:33:16;10.22;78.09
86734;SHT30;77492;48.396;-4.472;2024-03-29T09:35:41;10.06;80.86
86734;SHT30;77492;48.396;-4.472;2024-03-29T09:38:07;9.50;84.73
86734;SHT30;77492;48.396;-4.472;2024-03-29T09:40:32;9.53;83.19
86734;SHT30;77492;48.396;-4.472;2024-03-29T09:43:00;9.77;81.94
86734;SHT30;77492;48.396;-4.472;2024-03-29T09:45:35;9.95;81.26
86734;SHT30;77492;48.396;-4.472;2024-03-29T09:48:05;10.03;81.01
86734;SHT30;77492;48.396;-4.472;2024-03-29T09:50:33;10.15;81.41
86734;SHT30;77492;48.396;-4.472;2024-03-29T09:53:00;10.12;81.24
86734;SHT30;77492;48.396;-4.472;2024-03-29T09:55:26;10.12;81.75
86734;SHT30;77492;48.396;-4.472;2024-03-29T09:57:53;10.19;81.18
86734;SHT30;77492;48.396;-4.472;2024-03-29T10:00:19;10.30;81.15
86734;SHT30;77492;48.396;-4.472;2024-03-29T10:02:45;10.23;80.48
86734;SHT30;77492;48.396;-4.472;2024-03-29T10:05:11;10.58;80.04
86734;SHT30;77492;48.396;-4.472;2024-03-29T10:07:38;11.17;79.90
86734;SHT30;77492;48.396;-4.472;2024-03-29T10:10:04;11.61;77.92
86734;SHT30;77492;48.396;-4.472;2024-03-29T10:12:30;11.99;76.72
86734;SHT30;77492;48.396;-4.472;2024-03-29T10:14:56;11.81;76.78
86734;SHT30;77492;48.396;-4.472;2024-03-29T10:17:31;11.38;77.79
86734;SHT30;77492;48.396;-4.472;2024-03-29T10:20:01;10.92;78.23
86734;SHT30;77492;48.396;-4.472;2024-03-29T10:22:35;10.78;77.24
86734;SHT30;77492;48.396;-4.472;2024-03-29T10:25:01;10.56;77.91
86734;SHT30;77492;48.396;-4.472;2024-03-29T10:27:27;10.60;76.02
86734;SHT30;77492;48.396;-4.472;2024-03-29T10:29:53;10.96;74.16
86734;SHT30;77492;48.396;-4.472;2024-03-29T10:32:18;11.26;73.89
86734;SHT30;77492;48.396;-4.472;2024-03-29T10:34:44;11.90;73.66
86734;SHT30;77492;48.396;-4.472;2024-03-29T10:37:09;11.83;73.60
86734;SHT30;77492;48.396;-4.472;2024-03-29T10:39:36;11.23;74.32
86734;SHT30;77492;48.396;-4.472;2024-03-29T10:42:01;11.33;74.44
86734;SHT30;77492;48.396;-4.472;2024-03-29T10:44:29;11.55;73.11
86734;SHT30;77492;48.396;-4.472;2024-03-29T10:46:58;11.64;71.58
86734;SHT30;77492;48.396;-4.472;2024-03-29T10:49:25;11.74;71.39
86734;SHT30;77492;48.396;-4.472;2024-03-29T10:51:53;11.74;71.02
86734;SHT30;77492;48.396;-4.472;2024-03-29T10:54:19;11.94;71.00
86734;SHT30;77492;48.396;-4.472;2024-03-29T10:56:47;11.83;69.46
86734;SHT30;77492;48.396;-4.472;2024-03-29T10:59:22;12.00;69.35
86734;SHT30;77492;48.396;-4.472;2024-03-29T11:02:01;12.01;69.51
86734;SHT30;77492;48.396;-4.472;2024-03-29T11:04:33;12.13;69.18
86734;SHT30;77492;48.396;-4.472;2024-03-29T11:07:06;12.18;68.23
86734;SHT30;77492;48.396;-4.472;2024-03-29T11:09:34;12.23;68.33
86734;SHT30;77492;48.396;-4.472;2024-03-29T11:12:01;12.31;67.67
86734;SHT30;77492;48.396;-4.472;2024-03-29T11:14:39;12.63;66.55
86734;SHT30;77492;48.396;-4.472;2024-03-29T11:17:07;12.87;66.46
86734;SHT30;77492;48.396;-4.472;2024-03-29T11:19:33;12.87;66.26
86734;SHT30;77492;48.396;-4.472;2024-03-29T11:21:58;13.01;63.42
86734;SHT30;77492;48.396;-4.472;2024-03-29T11:24:26;13.29;63.07
86734;SHT30;77492;48.396;-4.472;2024-03-29T11:26:53;13.14;62.96
86734;SHT30;77492;48.396;-4.472;2024-03-29T11:29:20;12.92;64.83
86734;SHT30;77492;48.396;-4.472;2024-03-29T11:31:46;12.07;69.17
86734;SHT30;77492;48.396;-4.472;2024-03-29T11:34:12;11.27;71.34
86734;SHT30;77492;48.396;-4.472;2024-03-29T11:36:39;10.68;74.07
86734;SHT30;77492;48.396;-4.472;2024-03-29T11:39:05;10.34;75.03
86734;SHT30;77492;48.396;-4.472;2024-03-29T11:41:30;10.08;75.63
86734;SHT30;77492;48.396;-4.472;2024-03-29T11:43:57;10.15;76.15
86734;SHT30;77492;48.396;-4.472;2024-03-29T11:46:24;10.22;75.81
86734;SHT30;77492;48.396;-4.472;2024-03-29T11:48:51;10.71;74.76
86734;SHT30;77492;48.396;-4.472;2024-03-29T11:51:20;11.15;74.27
86734;SHT30;77492;48.396;-4.472;2024-03-29T11:53:47;11.99;73.28
86734;SHT30;77492;48.396;-4.472;2024-03-29T11:56:13;12.20;73.02
86734;SHT30;77492;48.396;-4.472;2024-03-29T11:58:39;12.10;72.92
86734;SHT30;77492;48.396;-4.472;2024-03-29T12:01:06;11.81;73.49
86734;SHT30;77492;48.396;-4.472;2024-03-29T12:03:32;12.41;73.36
86734;SHT30;77492;48.396;-4.472;2024-03-29T12:06:00;13.04;71.62
86734;SHT30;77492;48.396;-4.472;2024-03-29T12:08:31;12.65;70.76
86734;SHT30;77492;48.396;-4.472;2024-03-29T12:10:58;12.59;69.34
86734;SHT30;77492;48.396;-4.472;2024-03-29T12:13:24;12.21;71.10
86734;SHT30;77492;48.396;-4.472;2024-03-29T12:15:50;12.21;71.23
86734;SHT30;77492;48.396;-4.472;2024-03-29T12:18:16;12.01;71.72
86734;SHT30;77492;48.396;-4.472;2024-03-29T12:20:42;11.76;72.95
86734;SHT30;77492;48.396;-4.472;2024-03-29T12:23:11;11.09;73.56
86734;SHT30;77492;48.396;-4.472;2024-03-29T12:25:38;10.53;76.74
86734;SHT30;77492;48.396;-4.472;2024-03-29T12:28:05;10.61;76.94
86734;SHT30;77492;48.396;-4.472;2024-03-29T12:30:31;11.76;75.58
86734;SHT30;77492;48.396;-4.472;2024-03-29T12:33:04;12.52;73.00
86734;SHT30;77492;48.396;-4.472;2024-03-29T12:35:33;12.33;71.78
86734;SHT30;77492;48.396;-4.472;2024-03-29T12:38:00;12.59;73.01
86734;SHT30;77492;48.396;-4.472;2024-03-29T12:40:28;12.25;70.48
86734;SHT30;77492;48.396;-4.472;2024-03-29T12:42:56;11.93;72.59
86734;SHT30;77492;48.396;-4.472;2024-03-29T12:45:21;12.92;69.54
86734;SHT30;77492;48.396;-4.472;2024-03-29T12:47:48;13.63;66.22
86734;SHT30;77492;48.396;-4.472;2024-03-29T12:50:34;13.94;65.59
86734;SHT30;77492;48.396;-4.472;2024-03-29T12:53:06;14.47;64.29
86734;SHT30;77492;48.396;-4.472;2024-03-29T12:55:32;14.43;62.25
86734;SHT30;77492;48.396;-4.472;2024-03-29T12:58:07;14.91;61.89
86734;SHT30;77492;48.396;-4.472;2024-03-29T13:00:35;14.94;61.48
86734;SHT30;77492;48.396;-4.472;2024-03-29T13:03:00;14.84;59.86
86734;SHT30;77492;48.396;-4.472;2024-03-29T13:05:29;14.11;63.16
86734;SHT30;77492;48.396;-4.472;2024-03-29T13:08:03;15.01;60.83
86734;SHT30;77492;48.396;-4.472;2024-03-29T13:10:30;14.55;60.31
86734;SHT30;77492;48.396;-4.472;2024-03-29T13:12:55;14.71;61.36
86734;SHT30;77492;48.396;-4.472;2024-03-29T13:15:27;14.99;60.02
86734;SHT30;77492;48.396;-4.472;2024-03-29T13:17:56;15.03;60.37
86734;SHT30;77492;48.396;-4.472;2024-03-29T13:20:23;15.13;59.62
86734;SHT30;77492;48.396;-4.472;2024-03-29T13:22:50;14.30;62.76
86734;SHT30;77492;48.396;-4.472;2024-03-29T13:25:19;15.60;59.06
86734;SHT30;77492;48.396;-4.472;2024-03-29T13:27:54;15.03;61.40
86734;SHT30;77492;48.396;-4.472;2024-03-29T13:30:24;14.53;62.10
86734;SHT30;77492;48.396;-4.472;2024-03-29T13:32:50;15.78;60.18
86734;SHT30;77492;48.396;-4.472;2024-03-29T13:35:16;16.10;59.23
86734;SHT30;77492;48.396;-4.472;2024-03-29T13:37:43;14.68;63.20
86734;SHT30;77492;48.396;-4.472;2024-03-29T13:40:09;14.74;62.97
86734;SHT30;77492;48.396;-4.472;2024-03-29T13:42:36;16.06;58.61
86734;SHT30;77492;48.396;-4.472;2024-03-29T13:45:03;15.98;57.57
86734;SHT30;77492;48.396;-4.472;2024-03-29T13:47:30;16.27;55.83
86734;SHT30;77492;48.396;-4.472;2024-03-29T13:49:55;16.01;57.64
86734;SHT30;77492;48.396;-4.472;2024-03-29T13:52:22;14.76;61.19
86734;SHT30;77492;48.396;-4.472;2024-03-29T13:54:47;14.55;61.69
86734;SHT30;77492;48.396;-4.472;2024-03-29T13:57:14;15.12;59.98
86734;SHT30;77492;48.396;-4.472;2024-03-29T13:59:39;14.17;62.08
86734;SHT30;77492;48.396;-4.472;2024-03-29T14:02:08;13.80;59.77
86734;SHT30;77492;48.396;-4.472;2024-03-29T14:04:33;15.26;58.52
86734;SHT30;77492;48.396;-4.472;2024-03-29T14:06:58;16.44;56.25
86734;SHT30;77492;48.396;-4.472;2024-03-29T14:09:24;16.82;52.86
86734;SHT30;77492;48.396;-4.472;2024-03-29T14:11:51;16.67;54.11
86734;SHT30;77492;48.396;-4.472;2024-03-29T14:14:16;16.79;52.80
86734;SHT30;77492;48.396;-4.472;2024-03-29T14:16:42;17.89;50.97
86734;SHT30;77492;48.396;-4.472;2024-03-29T14:19:07;17.93;49.62
86734;SHT30;77492;48.396;-4.472;2024-03-29T14:21:32;18.27;48.53
86734;SHT30;77492;48.396;-4.472;2024-03-29T14:23:58;17.94;47.98
86734;SHT30;77492;48.396;-4.472;2024-03-29T14:26:24;18.38;46.25
86734;SHT30;77492;48.396;-4.472;2024-03-29T14:28:50;16.48;52.05
86734;SHT30;77492;48.396;-4.472;2024-03-29T14:31:15;17.19;51.26
86734;SHT30;77492;48.396;-4.472;2024-03-29T14:33:41;17.93;50.22
86734;SHT30;77492;48.396;-4.472;2024-03-29T14:36:07;17.03;50.13
86734;SHT30;77492;48.396;-4.472;2024-03-29T14:38:32;18.03;48.80
86734;SHT30;77492;48.396;-4.472;2024-03-29T14:40:58;18.37;47.97
86734;SHT30;77492;48.396;-4.472;2024-03-29T14:43:23;16.27;52.83
86734;SHT30;77492;48.396;-4.472;2024-03-29T14:45:49;16.36;52.37
86734;SHT30;77492;48.396;-4.472;2024-03-29T14:48:17;16.54;52.00
86734;SHT30;77492;48.396;-4.472;2024-03-29T14:50:43;18.81;46.13
86734;SHT30;77492;48.396;-4.472;2024-03-29T14:53:09;19.42;44.18
86734;SHT30;77492;48.396;-4.472;2024-03-29T14:55:35;19.80;43.85
86734;SHT30;77492;48.396;-4.472;2024-03-29T14:58:07;17.20;48.88
86734;SHT30;77492;48.396;-4.472;2024-03-29T15:00:33;16.99;49.02
86734;SHT30;77492;48.396;-4.472;2024-03-29T15:02:58;15.86;53.14
86734;SHT30;77492;48.396;-4.472;2024-03-29T15:05:24;16.29;52.77
86734;SHT30;77492;48.396;-4.472;2024-03-29T15:07:51;18.56;46.56
86734;SHT30;77492;48.396;-4.472;2024-03-29T15:10:17;19.11;45.36
86734;SHT30;77492;48.396;-4.472;2024-03-29T15:12:45;18.64;46.25
86734;SHT30;77492;48.396;-4.472;2024-03-29T15:15:11;18.57;45.65
86734;SHT30;77492;48.396;-4.472;2024-03-29T15:17:37;18.72;45.16
86734;SHT30;77492;48.396;-4.472;2024-03-29T15:20:03;19.14;44.28